sensor_id;sensor_type;location;lat;lon;timestamp;P1;durP1;ratioP1;P2;durP2;ratioP2
9102;SDS011;4587;51.434;6.788;2023-12-22T00:01:14;8.23;;;2.17;;
9102;SDS011;4587;51.434;6.788;2023-12-22T00:03:42;8.17;;;1.83;;
9102;SDS011;4587;51.434;6.788;2023-12-22T00:06:10;8.67;;;1.73;;
9102;SDS011;4587;51.434;6.788;2023-12-22T00:08:36;6.97;;;1.83;;
9102;SDS011;4587;51.434;6.788;2023-12-22T00:11:02;7.43;;;1.80;;
9102;SDS011;4587;51.434;6.788;2023-12-22T00:13:28;6.50;;;1.70;;
9102;SDS011;4587;51.434;6.788;2023-12-22T00:15:53;8.27;;;2.30;;
9102;SDS011;4587;51.434;6.788;2023-12-22T00:18:19;9.10;;;1.90;;
9102;SDS011;4587;51.434;6.788;2023-12-22T00:20:44;5.17;;;1.97;;
9102;SDS011;4587;51.434;6.788;2023-12-22T00:23:10;10.20;;;1.90;;
9102;SDS011;4587;51.434;6.788;2023-12-22T00:25:35;7.80;;;2.20;;
9102;SDS011;4587;51.434;6.788;2023-12-22T00:28:01;11.00;;;2.20;;
9102;SDS011;4587;51.434;6.788;2023-12-22T00:30:26;6.77;;;1.67;;
9102;SDS011;4587;51.434;6.788;2023-12-22T00:32:52;6.87;;;1.80;;
9102;SDS011;4587;51.434;6.788;2023-12-22T00:35:17;8.47;;;1.80;;
9102;SDS011;4587;51.434;6.788;2023-12-22T00:37:43;6.03;;;1.60;;
9102;SDS011;4587;51.434;6.788;2023-12-22T00:40:09;10.03;;;2.00;;
9102;SDS011;4587;51.434;6.788;2023-12-22T00:42:35;8.67;;;1.80;;
9102;SDS011;4587;51.434;6.788;2023-12-22T00:45:00;7.43;;;1.70;;
9102;SDS011;4587;51.434;6.788;2023-12-22T00:47:26;9.57;;;2.23;;
9102;SDS011;4587;51.434;6.788;2023-12-22T00:49:52;8.07;;;2.10;;
9102;SDS011;4587;51.434;6.788;2023-12-22T00:52:17;10.10;;;2.20;;
9102;SDS011;4587;51.434;6.788;2023-12-22T00:54:43;16.33;;;2.87;;
9102;SDS011;4587;51.434;6.788;2023-12-22T00:57:08;7.20;;;1.97;;
9102;SDS011;4587;51.434;6.788;2023-12-22T00:59:34;11.23;;;1.97;;
9102;SDS011;4587;51.434;6.788;2023-12-22T01:01:59;9.83;;;2.17;;
9102;SDS011;4587;51.434;6.788;2023-12-22T01:04:25;11.27;;;2.43;;
9102;SDS011;4587;51.434;6.788;2023-12-22T01:06:50;9.30;;;2.20;;
9102;SDS011;4587;51.434;6.788;2023-12-22T01:09:21;8.73;;;1.90;;
9102;SDS011;4587;51.434;6.788;2023-12-22T01:11:46;6.57;;;1.50;;
9102;SDS011;4587;51.434;6.788;2023-12-22T01:14:12;8.63;;;1.73;;
9102;SDS011;4587;51.434;6.788;2023-12-22T01:16:39;8.80;;;1.90;;
9102;SDS011;4587;51.434;6.788;2023-12-22T01:19:04;6.37;;;1.53;;
9102;SDS011;4587;51.434;6.788;2023-12-22T01:21:30;7.40;;;2.03;;
9102;SDS011;4587;51.434;6.788;2023-12-22T01:23:56;10.73;;;2.00;;
9102;SDS011;4587;51.434;6.788;2023-12-22T01:26:23;9.97;;;2.00;;
9102;SDS011;4587;51.434;6.788;2023-12-22T01:28:49;11.07;;;2.17;;
9102;SDS011;4587;51.434;6.788;2023-12-22T01:31:15;6.80;;;1.90;;
9102;SDS011;4587;51.434;6.788;2023-12-22T01:33:40;7.17;;;1.80;;
9102;SDS011;4587;51.434;6.788;2023-12-22T01:36:06;8.40;;;2.13;;
9102;SDS011;4587;51.434;6.788;2023-12-22T01:38:31;8.80;;;2.03;;
9102;SDS011;4587;51.434;6.788;2023-12-22T01:40:57;6.87;;;2.17;;
9102;SDS011;4587;51.434;6.788;2023-12-22T01:43:22;4.60;;;1.50;;
9102;SDS011;4587;51.434;6.788;2023-12-22T01:45:49;4.00;;;1.70;;
9102;SDS011;4587;51.434;6.788;2023-12-22T01:48:20;6.00;;;1.93;;
9102;SDS011;4587;51.434;6.788;2023-12-22T01:50:48;5.83;;;1.70;;
9102;SDS011;4587;51.434;6.788;2023-12-22T01:53:17;5.47;;;1.40;;
9102;SDS011;4587;51.434;6.788;2023-12-22T01:55:45;5.93;;;1.50;;
9102;SDS011;4587;51.434;6.788;2023-12-22T01:58:15;3.23;;;1.17;;
9102;SDS011;4587;51.434;6.788;2023-12-22T02:00:41;5.57;;;1.33;;
9102;SDS011;4587;51.434;6.788;2023-12-22T02:03:07;4.13;;;1.13;;
9102;SDS011;4587;51.434;6.788;2023-12-22T02:05:33;3.87;;;1.57;;
9102;SDS011;4587;51.434;6.788;2023-12-22T02:07:59;5.93;;;0.90;;
9102;SDS011;4587;51.434;6.788;2023-12-22T02:10:25;7.17;;;1.37;;
9102;SDS011;4587;51.434;6.788;2023-12-22T02:12:51;7.07;;;1.37;;
9102;SDS011;4587;51.434;6.788;2023-12-22T02:15:16;7.30;;;1.10;;
9102;SDS011;4587;51.434;6.788;2023-12-22T02:17:53;5.60;;;1.30;;
9102;SDS011;4587;51.434;6.788;2023-12-22T02:20:24;5.30;;;1.30;;
9102;SDS011;4587;51.434;6.788;2023-12-22T02:22:52;6.80;;;1.60;;
9102;SDS011;4587;51.434;6.788;2023-12-22T02:25:18;5.90;;;1.27;;
9102;SDS011;4587;51.434;6.788;2023-12-22T02:27:45;5.40;;;1.37;;
9102;SDS011;4587;51.434;6.788;2023-12-22T02:30:23;7.83;;;1.40;;
9102;SDS011;4587;51.434;6.788;2023-12-22T02:33:08;8.20;;;1.60;;
9102;SDS011;4587;51.434;6.788;2023-12-22T02:35:36;8.97;;;1.60;;
9102;SDS011;4587;51.434;6.788;2023-12-22T02:38:03;7.30;;;1.60;;
9102;SDS011;4587;51.434;6.788;2023-12-22T02:40:30;6.43;;;1.90;;
9102;SDS011;4587;51.434;6.788;2023-12-22T02:42:56;7.53;;;1.77;;
9102;SDS011;4587;51.434;6.788;2023-12-22T02:45:22;6.33;;;1.47;;
9102;SDS011;4587;51.434;6.788;2023-12-22T02:47:48;8.27;;;1.97;;
9102;SDS011;4587;51.434;6.788;2023-12-22T02:50:14;6.27;;;1.60;;
9102;SDS011;4587;51.434;6.788;2023-12-22T02:52:41;9.13;;;1.70;;
9102;SDS011;4587;51.434;6.788;2023-12-22T02:55:07;5.27;;;1.37;;
9102;SDS011;4587;51.434;6.788;2023-12-22T02:57:33;7.97;;;1.50;;
9102;SDS011;4587;51.434;6.788;2023-12-22T02:59:58;6.13;;;1.63;;
9102;SDS011;4587;51.434;6.788;2023-12-22T03:02:24;13.23;;;2.00;;
9102;SDS011;4587;51.434;6.788;2023-12-22T03:04:50;6.47;;;1.80;;
9102;SDS011;4587;51.434;6.788;2023-12-22T03:07:16;7.97;;;1.67;;
9102;SDS011;4587;51.434;6.788;2023-12-22T03:09:42;6.90;;;1.60;;
9102;SDS011;4587;51.434;6.788;2023-12-22T03:12:08;10.37;;;1.60;;
9102;SDS011;4587;51.434;6.788;2023-12-22T03:14:34;7.23;;;1.40;;
9102;SDS011;4587;51.434;6.788;2023-12-22T03:17:03;8.87;;;1.60;;
9102;SDS011;4587;51.434;6.788;2023-12-22T03:19:31;8.67;;;1.80;;
9102;SDS011;4587;51.434;6.788;2023-12-22T03:21:57;10.80;;;1.67;;
9102;SDS011;4587;51.434;6.788;2023-12-22T03:24:23;8.90;;;1.50;;
9102;SDS011;4587;51.434;6.788;2023-12-22T03:26:49;11.00;;;1.90;;
9102;SDS011;4587;51.434;6.788;2023-12-22T03:29:15;11.13;;;1.70;;
9102;SDS011;4587;51.434;6.788;2023-12-22T03:31:41;7.70;;;1.20;;
9102;SDS011;4587;51.434;6.788;2023-12-22T03:34:07;8.33;;;1.80;;
9102;SDS011;4587;51.434;6.788;2023-12-22T03:36:32;6.73;;;1.67;;
9102;SDS011;4587;51.434;6.788;2023-12-22T03:38:58;4.90;;;1.53;;
9102;SDS011;4587;51.434;6.788;2023-12-22T03:41:23;9.30;;;2.17;;
9102;SDS011;4587;51.434;6.788;2023-12-22T03:43:49;10.13;;;2.10;;
9102;SDS011;4587;51.434;6.788;2023-12-22T03:46:14;11.77;;;1.90;;
9102;SDS011;4587;51.434;6.788;2023-12-22T03:48:40;10.93;;;2.37;;
9102;SDS011;4587;51.434;6.788;2023-12-22T03:51:06;10.53;;;2.27;;
9102;SDS011;4587;51.434;6.788;2023-12-22T03:53:31;9.47;;;2.07;;
9102;SDS011;4587;51.434;6.788;2023-12-22T03:55:57;8.37;;;2.20;;
9102;SDS011;4587;51.434;6.788;2023-12-22T03:58:22;12.17;;;2.23;;
9102;SDS011;4587;51.434;6.788;2023-12-22T04:00:48;9.60;;;1.97;;
9102;SDS011;4587;51.434;6.788;2023-12-22T04:03:14;8.00;;;1.90;;
9102;SDS011;4587;51.434;6.788;2023-12-22T04:05:39;12.10;;;2.10;;
9102;SDS011;4587;51.434;6.788;2023-12-22T04:08:05;10.80;;;1.90;;
9102;SDS011;4587;51.434;6.788;2023-12-22T04:10:31;10.53;;;2.40;;
9102;SDS011;4587;51.434;6.788;2023-12-22T04:12:57;10.87;;;2.10;;
9102;SDS011;4587;51.434;6.788;2023-12-22T04:15:22;11.80;;;2.47;;
9102;SDS011;4587;51.434;6.788;2023-12-22T04:17:48;11.90;;;2.23;;
9102;SDS011;4587;51.434;6.788;2023-12-22T04:20:14;14.00;;;2.50;;
9102;SDS011;4587;51.434;6.788;2023-12-22T04:22:40;10.00;;;2.17;;
9102;SDS011;4587;51.434;6.788;2023-12-22T04:25:06;12.73;;;2.30;;
9102;SDS011;4587;51.434;6.788;2023-12-22T04:27:32;16.23;;;3.00;;
9102;SDS011;4587;51.434;6.788;2023-12-22T04:29:58;13.03;;;2.60;;
9102;SDS011;4587;51.434;6.788;2023-12-22T04:32:24;12.83;;;2.73;;
9102;SDS011;4587;51.434;6.788;2023-12-22T04:34:50;16.03;;;2.87;;
9102;SDS011;4587;51.434;6.788;2023-12-22T04:37:16;12.50;;;2.93;;
9102;SDS011;4587;51.434;6.788;2023-12-22T04:39:41;19.07;;;3.23;;
9102;SDS011;4587;51.434;6.788;2023-12-22T04:42:07;13.73;;;3.23;;
9102;SDS011;4587;51.434;6.788;2023-12-22T04:44:32;15.83;;;3.10;;
9102;SDS011;4587;51.434;6.788;2023-12-22T04:46:58;16.00;;;2.90;;
9102;SDS011;4587;51.434;6.788;2023-12-22T04:49:23;12.43;;;3.03;;
9102;SDS011;4587;51.434;6.788;2023-12-22T04:51:49;11.17;;;2.57;;
9102;SDS011;4587;51.434;6.788;2023-12-22T04:54:14;13.87;;;3.57;;
9102;SDS011;4587;51.434;6.788;2023-12-22T04:56:40;15.57;;;3.57;;
9102;SDS011;4587;51.434;6.788;2023-12-22T04:59:05;12.47;;;3.10;;
9102;SDS011;4587;51.434;6.788;2023-12-22T05:01:31;16.93;;;3.40;;
9102;SDS011;4587;51.434;6.788;2023-12-22T05:03:57;15.23;;;3.47;;
9102;SDS011;4587;51.434;6.788;2023-12-22T05:06:22;13.77;;;3.63;;
9102;SDS011;4587;51.434;6.788;2023-12-22T05:08:48;16.70;;;4.07;;
9102;SDS011;4587;51.434;6.788;2023-12-22T05:11:13;9.43;;;2.23;;
9102;SDS011;4587;51.434;6.788;2023-12-22T05:13:39;8.00;;;2.37;;
9102;SDS011;4587;51.434;6.788;2023-12-22T05:16:05;10.37;;;2.80;;
9102;SDS011;4587;51.434;6.788;2023-12-22T05:18:31;13.00;;;3.30;;
9102;SDS011;4587;51.434;6.788;2023-12-22T05:20:56;7.43;;;2.53;;
9102;SDS011;4587;51.434;6.788;2023-12-22T05:23:22;8.83;;;2.40;;
9102;SDS011;4587;51.434;6.788;2023-12-22T05:25:47;7.77;;;1.90;;
9102;SDS011;4587;51.434;6.788;2023-12-22T05:28:13;5.67;;;1.90;;
9102;SDS011;4587;51.434;6.788;2023-12-22T05:30:38;5.47;;;1.40;;
9102;SDS011;4587;51.434;6.788;2023-12-22T05:33:04;5.90;;;1.87;;
9102;SDS011;4587;51.434;6.788;2023-12-22T05:35:29;5.17;;;1.40;;
9102;SDS011;4587;51.434;6.788;2023-12-22T05:37:55;8.30;;;1.33;;
9102;SDS011;4587;51.434;6.788;2023-12-22T05:40:21;5.50;;;1.50;;
9102;SDS011;4587;51.434;6.788;2023-12-22T05:42:46;5.00;;;1.33;;
9102;SDS011;4587;51.434;6.788;2023-12-22T05:45:12;5.13;;;1.30;;
9102;SDS011;4587;51.434;6.788;2023-12-22T05:47:38;7.07;;;1.37;;
9102;SDS011;4587;51.434;6.788;2023-12-22T05:50:04;5.23;;;1.60;;
9102;SDS011;4587;51.434;6.788;2023-12-22T05:52:30;7.37;;;1.70;;
9102;SDS011;4587;51.434;6.788;2023-12-22T05:54:56;9.53;;;1.80;;
9102;SDS011;4587;51.434;6.788;2023-12-22T05:57:21;8.90;;;1.77;;
9102;SDS011;4587;51.434;6.788;2023-12-22T05:59:47;7.90;;;1.67;;
9102;SDS011;4587;51.434;6.788;2023-12-22T06:02:12;4.57;;;1.93;;
9102;SDS011;4587;51.434;6.788;2023-12-22T06:04:38;8.70;;;1.77;;
9102;SDS011;4587;51.434;6.788;2023-12-22T06:07:03;10.37;;;2.10;;
9102;SDS011;4587;51.434;6.788;2023-12-22T06:09:29;11.90;;;2.20;;
9102;SDS011;4587;51.434;6.788;2023-12-22T06:11:55;9.43;;;2.20;;
9102;SDS011;4587;51.434;6.788;2023-12-22T06:14:21;8.50;;;2.03;;
9102;SDS011;4587;51.434;6.788;2023-12-22T06:16:46;12.70;;;2.47;;
9102;SDS011;4587;51.434;6.788;2023-12-22T06:19:12;12.67;;;2.47;;
9102;SDS011;4587;51.434;6.788;2023-12-22T06:21:38;11.30;;;2.70;;
9102;SDS011;4587;51.434;6.788;2023-12-22T06:24:04;13.57;;;2.50;;
9102;SDS011;4587;51.434;6.788;2023-12-22T06:26:30;10.10;;;2.20;;
9102;SDS011;4587;51.434;6.788;2023-12-22T06:28:55;13.83;;;2.70;;
9102;SDS011;4587;51.434;6.788;2023-12-22T06:31:21;15.43;;;3.00;;
9102;SDS011;4587;51.434;6.788;2023-12-22T06:33:47;11.97;;;3.17;;
9102;SDS011;4587;51.434;6.788;2023-12-22T06:36:23;11.80;;;2.70;;
9102;SDS011;4587;51.434;6.788;2023-12-22T06:38:50;10.60;;;2.80;;
9102;SDS011;4587;51.434;6.788;2023-12-22T06:43:48;13.17;;;2.87;;
9102;SDS011;4587;51.434;6.788;2023-12-22T06:46:18;14.13;;;2.93;;
9102;SDS011;4587;51.434;6.788;2023-12-22T06:48:45;14.70;;;3.17;;
9102;SDS011;4587;51.434;6.788;2023-12-22T06:51:20;17.67;;;2.80;;
9102;SDS011;4587;51.434;6.788;2023-12-22T06:53:53;14.87;;;2.60;;
9102;SDS011;4587;51.434;6.788;2023-12-22T06:56:20;15.10;;;3.07;;
9102;SDS011;4587;51.434;6.788;2023-12-22T06:58:47;15.37;;;3.00;;
9102;SDS011;4587;51.434;6.788;2023-12-22T07:01:29;13.37;;;2.97;;
9102;SDS011;4587;51.434;6.788;2023-12-22T07:03:59;13.87;;;3.23;;
9102;SDS011;4587;51.434;6.788;2023-12-22T07:06:26;15.80;;;3.10;;
9102;SDS011;4587;51.434;6.788;2023-12-22T07:11:48;16.73;;;2.87;;
9102;SDS011;4587;51.434;6.788;2023-12-22T07:14:20;15.80;;;2.70;;
9102;SDS011;4587;51.434;6.788;2023-12-22T07:16:46;9.37;;;2.30;;
9102;SDS011;4587;51.434;6.788;2023-12-22T07:19:12;15.37;;;2.83;;
9102;SDS011;4587;51.434;6.788;2023-12-22T07:21:38;13.00;;;2.73;;
9102;SDS011;4587;51.434;6.788;2023-12-22T07:24:06;17.50;;;3.43;;
9102;SDS011;4587;51.434;6.788;2023-12-22T07:26:32;12.63;;;2.67;;
9102;SDS011;4587;51.434;6.788;2023-12-22T07:28:58;15.47;;;3.20;;
9102;SDS011;4587;51.434;6.788;2023-12-22T07:31:24;11.53;;;3.13;;
9102;SDS011;4587;51.434;6.788;2023-12-22T07:33:50;11.83;;;2.80;;
9102;SDS011;4587;51.434;6.788;2023-12-22T07:36:16;14.93;;;3.00;;
9102;SDS011;4587;51.434;6.788;2023-12-22T07:38:43;12.67;;;2.87;;
9102;SDS011;4587;51.434;6.788;2023-12-22T07:41:09;13.80;;;3.20;;
9102;SDS011;4587;51.434;6.788;2023-12-22T07:43:35;13.50;;;3.13;;
9102;SDS011;4587;51.434;6.788;2023-12-22T07:46:01;12.97;;;2.97;;
9102;SDS011;4587;51.434;6.788;2023-12-22T07:48:26;15.27;;;3.20;;
9102;SDS011;4587;51.434;6.788;2023-12-22T07:50:52;13.90;;;3.43;;
9102;SDS011;4587;51.434;6.788;2023-12-22T07:53:18;11.67;;;2.97;;
9102;SDS011;4587;51.434;6.788;2023-12-22T07:55:44;11.10;;;3.17;;
9102;SDS011;4587;51.434;6.788;2023-12-22T07:58:11;16.20;;;3.47;;
9102;SDS011;4587;51.434;6.788;2023-12-22T08:00:40;16.30;;;3.50;;
9102;SDS011;4587;51.434;6.788;2023-12-22T08:03:05;18.77;;;3.50;;
9102;SDS011;4587;51.434;6.788;2023-12-22T08:05:31;14.73;;;3.57;;
9102;SDS011;4587;51.434;6.788;2023-12-22T08:07:58;17.10;;;3.83;;
9102;SDS011;4587;51.434;6.788;2023-12-22T08:10:23;18.43;;;3.47;;
9102;SDS011;4587;51.434;6.788;2023-12-22T08:12:49;13.17;;;3.77;;
9102;SDS011;4587;51.434;6.788;2023-12-22T08:15:14;17.87;;;4.57;;
9102;SDS011;4587;51.434;6.788;2023-12-22T08:17:47;24.33;;;5.17;;
9102;SDS011;4587;51.434;6.788;2023-12-22T08:20:19;22.27;;;4.60;;
9102;SDS011;4587;51.434;6.788;2023-12-22T08:22:46;20.63;;;4.63;;
9102;SDS011;4587;51.434;6.788;2023-12-22T08:25:12;21.70;;;4.60;;
9102;SDS011;4587;51.434;6.788;2023-12-22T08:27:38;25.10;;;5.20;;
9102;SDS011;4587;51.434;6.788;2023-12-22T08:30:04;25.27;;;5.30;;
9102;SDS011;4587;51.434;6.788;2023-12-22T08:32:30;22.77;;;5.53;;
9102;SDS011;4587;51.434;6.788;2023-12-22T08:34:55;21.13;;;5.13;;
9102;SDS011;4587;51.434;6.788;2023-12-22T08:37:21;25.10;;;4.87;;
9102;SDS011;4587;51.434;6.788;2023-12-22T08:39:46;24.07;;;4.90;;
9102;SDS011;4587;51.434;6.788;2023-12-22T08:42:12;28.87;;;5.57;;
9102;SDS011;4587;51.434;6.788;2023-12-22T08:44:37;25.93;;;5.57;;
9102;SDS011;4587;51.434;6.788;2023-12-22T08:47:03;29.80;;;5.90;;
9102;SDS011;4587;51.434;6.788;2023-12-22T08:49:28;22.87;;;5.17;;
9102;SDS011;4587;51.434;6.788;2023-12-22T08:51:54;31.40;;;6.03;;
9102;SDS011;4587;51.434;6.788;2023-12-22T08:54:19;24.33;;;5.90;;
9102;SDS011;4587;51.434;6.788;2023-12-22T08:56:45;24.60;;;5.43;;
9102;SDS011;4587;51.434;6.788;2023-12-22T08:59:11;29.93;;;5.93;;
9102;SDS011;4587;51.434;6.788;2023-12-22T09:01:37;29.60;;;6.30;;
9102;SDS011;4587;51.434;6.788;2023-12-22T09:04:02;30.70;;;6.50;;
9102;SDS011;4587;51.434;6.788;2023-12-22T09:06:28;29.63;;;6.23;;
9102;SDS011;4587;51.434;6.788;2023-12-22T09:08:54;28.63;;;6.53;;
9102;SDS011;4587;51.434;6.788;2023-12-22T09:11:19;26.80;;;5.53;;
9102;SDS011;4587;51.434;6.788;2023-12-22T09:13:45;27.40;;;5.47;;
9102;SDS011;4587;51.434;6.788;2023-12-22T09:16:11;26.27;;;6.13;;
9102;SDS011;4587;51.434;6.788;2023-12-22T09:18:40;25.77;;;5.30;;
9102;SDS011;4587;51.434;6.788;2023-12-22T09:21:05;27.40;;;5.87;;
9102;SDS011;4587;51.434;6.788;2023-12-22T09:23:31;28.33;;;6.30;;
9102;SDS011;4587;51.434;6.788;2023-12-22T09:25:57;26.63;;;6.10;;
9102;SDS011;4587;51.434;6.788;2023-12-22T09:28:23;23.37;;;5.57;;
9102;SDS011;4587;51.434;6.788;2023-12-22T09:30:49;29.10;;;5.73;;
9102;SDS011;4587;51.434;6.788;2023-12-22T09:33:14;24.00;;;5.50;;
9102;SDS011;4587;51.434;6.788;2023-12-22T09:35:40;19.53;;;4.90;;
9102;SDS011;4587;51.434;6.788;2023-12-22T09:38:07;26.80;;;5.73;;
9102;SDS011;4587;51.434;6.788;2023-12-22T09:40:39;26.60;;;6.07;;
9102;SDS011;4587;51.434;6.788;2023-12-22T09:43:08;23.10;;;5.00;;
9102;SDS011;4587;51.434;6.788;2023-12-22T09:45:33;23.37;;;5.20;;
9102;SDS011;4587;51.434;6.788;2023-12-22T09:48:00;27.73;;;5.40;;
9102;SDS011;4587;51.434;6.788;2023-12-22T09:50:29;21.63;;;5.50;;
9102;SDS011;4587;51.434;6.788;2023-12-22T09:52:56;23.87;;;5.27;;
9102;SDS011;4587;51.434;6.788;2023-12-22T09:55:22;23.77;;;5.50;;
9102;SDS011;4587;51.434;6.788;2023-12-22T09:57:48;20.03;;;4.87;;
9102;SDS011;4587;51.434;6.788;2023-12-22T10:00:15;22.10;;;5.03;;
9102;SDS011;4587;51.434;6.788;2023-12-22T10:02:42;22.87;;;5.40;;
9102;SDS011;4587;51.434;6.788;2023-12-22T10:05:15;21.13;;;3.93;;
9102;SDS011;4587;51.434;6.788;2023-12-22T10:07:43;17.43;;;4.17;;
9102;SDS011;4587;51.434;6.788;2023-12-22T10:10:10;16.23;;;3.83;;
9102;SDS011;4587;51.434;6.788;2023-12-22T10:12:37;17.57;;;4.03;;
9102;SDS011;4587;51.434;6.788;2023-12-22T10:15:04;14.53;;;3.60;;
9102;SDS011;4587;51.434;6.788;2023-12-22T10:17:31;13.83;;;2.87;;
9102;SDS011;4587;51.434;6.788;2023-12-22T10:19:57;18.17;;;3.90;;
9102;SDS011;4587;51.434;6.788;2023-12-22T10:22:23;16.00;;;3.50;;
9102;SDS011;4587;51.434;6.788;2023-12-22T10:24:49;15.00;;;2.87;;
9102;SDS011;4587;51.434;6.788;2023-12-22T10:27:18;14.17;;;2.90;;
9102;SDS011;4587;51.434;6.788;2023-12-22T10:29:48;13.97;;;3.20;;
9102;SDS011;4587;51.434;6.788;2023-12-22T10:32:22;14.10;;;2.90;;
9102;SDS011;4587;51.434;6.788;2023-12-22T10:34:48;10.70;;;3.00;;
9102;SDS011;4587;51.434;6.788;2023-12-22T10:37:17;8.97;;;2.63;;
9102;SDS011;4587;51.434;6.788;2023-12-22T10:39:43;8.57;;;2.40;;
9102;SDS011;4587;51.434;6.788;2023-12-22T10:42:13;8.30;;;2.53;;
9102;SDS011;4587;51.434;6.788;2023-12-22T10:44:39;13.47;;;2.93;;
9102;SDS011;4587;51.434;6.788;2023-12-22T10:47:09;11.47;;;2.40;;
9102;SDS011;4587;51.434;6.788;2023-12-22T10:49:34;8.67;;;2.10;;
9102;SDS011;4587;51.434;6.788;2023-12-22T10:52:01;8.17;;;2.07;;
9102;SDS011;4587;51.434;6.788;2023-12-22T10:54:27;9.00;;;1.73;;
9102;SDS011;4587;51.434;6.788;2023-12-22T10:56:57;4.83;;;1.70;;
9102;SDS011;4587;51.434;6.788;2023-12-22T10:59:24;7.33;;;2.33;;
9102;SDS011;4587;51.434;6.788;2023-12-22T11:01:54;6.33;;;1.97;;
9102;SDS011;4587;51.434;6.788;2023-12-22T11:04:22;6.83;;;1.90;;
9102;SDS011;4587;51.434;6.788;2023-12-22T11:06:54;5.20;;;1.80;;
9102;SDS011;4587;51.434;6.788;2023-12-22T11:09:22;7.47;;;2.30;;
9102;SDS011;4587;51.434;6.788;2023-12-22T11:11:50;10.27;;;2.10;;
9102;SDS011;4587;51.434;6.788;2023-12-22T11:14:16;6.87;;;1.93;;
9102;SDS011;4587;51.434;6.788;2023-12-22T11:16:42;6.70;;;2.37;;
9102;SDS011;4587;51.434;6.788;2023-12-22T11:19:13;6.63;;;2.03;;
9102;SDS011;4587;51.434;6.788;2023-12-22T11:21:40;9.20;;;2.57;;
9102;SDS011;4587;51.434;6.788;2023-12-22T11:24:06;10.60;;;2.53;;
9102;SDS011;4587;51.434;6.788;2023-12-22T11:26:33;6.27;;;2.27;;
9102;SDS011;4587;51.434;6.788;2023-12-22T11:28:59;7.03;;;2.33;;
9102;SDS011;4587;51.434;6.788;2023-12-22T11:31:27;5.10;;;2.20;;
9102;SDS011;4587;51.434;6.788;2023-12-22T11:33:56;8.77;;;2.03;;
9102;SDS011;4587;51.434;6.788;2023-12-22T11:36:24;6.93;;;2.30;;
9102;SDS011;4587;51.434;6.788;2023-12-22T11:38:50;10.90;;;2.37;;
9102;SDS011;4587;51.434;6.788;2023-12-22T11:41:17;6.10;;;2.30;;
9102;SDS011;4587;51.434;6.788;2023-12-22T11:43:46;4.90;;;2.07;;
9102;SDS011;4587;51.434;6.788;2023-12-22T11:46:12;4.47;;;1.87;;
9102;SDS011;4587;51.434;6.788;2023-12-22T11:48:38;6.20;;;1.80;;
9102;SDS011;4587;51.434;6.788;2023-12-22T11:51:16;8.17;;;1.90;;
9102;SDS011;4587;51.434;6.788;2023-12-22T11:53:42;6.43;;;2.00;;
9102;SDS011;4587;51.434;6.788;2023-12-22T11:56:08;4.93;;;1.70;;
9102;SDS011;4587;51.434;6.788;2023-12-22T11:58:36;7.10;;;1.83;;
9102;SDS011;4587;51.434;6.788;2023-12-22T12:01:13;6.40;;;1.97;;
9102;SDS011;4587;51.434;6.788;2023-12-22T12:03:42;5.63;;;1.83;;
9102;SDS011;4587;51.434;6.788;2023-12-22T12:06:30;7.47;;;2.20;;
9102;SDS011;4587;51.434;6.788;2023-12-22T12:08:57;5.80;;;1.87;;
9102;SDS011;4587;51.434;6.788;2023-12-22T12:14:31;6.00;;;1.63;;
9102;SDS011;4587;51.434;6.788;2023-12-22T12:17:05;4.63;;;1.50;;
9102;SDS011;4587;51.434;6.788;2023-12-22T12:19:40;4.93;;;1.60;;
9102;SDS011;4587;51.434;6.788;2023-12-22T12:22:07;3.63;;;1.53;;
9102;SDS011;4587;51.434;6.788;2023-12-22T12:24:32;7.43;;;1.83;;
9102;SDS011;4587;51.434;6.788;2023-12-22T12:26:59;4.93;;;1.53;;
9102;SDS011;4587;51.434;6.788;2023-12-22T12:29:24;4.87;;;1.70;;
9102;SDS011;4587;51.434;6.788;2023-12-22T12:31:50;4.63;;;1.70;;
9102;SDS011;4587;51.434;6.788;2023-12-22T12:34:16;4.90;;;1.50;;
9102;SDS011;4587;51.434;6.788;2023-12-22T12:36:45;4.13;;;1.70;;
9102;SDS011;4587;51.434;6.788;2023-12-22T12:39:14;5.93;;;1.40;;
9102;SDS011;4587;51.434;6.788;2023-12-22T12:41:41;4.17;;;1.30;;
9102;SDS011;4587;51.434;6.788;2023-12-22T12:44:11;3.73;;;1.30;;
9102;SDS011;4587;51.434;6.788;2023-12-22T12:46:37;4.03;;;1.60;;
9102;SDS011;4587;51.434;6.788;2023-12-22T12:49:04;3.03;;;1.37;;
9102;SDS011;4587;51.434;6.788;2023-12-22T12:51:40;5.93;;;1.80;;
9102;SDS011;4587;51.434;6.788;2023-12-22T12:54:08;4.40;;;1.77;;
9102;SDS011;4587;51.434;6.788;2023-12-22T12:56:40;5.23;;;1.50;;
9102;SDS011;4587;51.434;6.788;2023-12-22T12:59:07;5.70;;;1.50;;
9102;SDS011;4587;51.434;6.788;2023-12-22T13:01:37;4.03;;;1.40;;
9102;SDS011;4587;51.434;6.788;2023-12-22T13:04:06;4.87;;;1.43;;
9102;SDS011;4587;51.434;6.788;2023-12-22T13:06:32;3.00;;;1.33;;
9102;SDS011;4587;51.434;6.788;2023-12-22T13:09:00;7.07;;;1.63;;
9102;SDS011;4587;51.434;6.788;2023-12-22T13:11:26;4.10;;;1.33;;
9102;SDS011;4587;51.434;6.788;2023-12-22T13:13:53;4.93;;;1.73;;
9102;SDS011;4587;51.434;6.788;2023-12-22T13:16:23;6.33;;;1.83;;
9102;SDS011;4587;51.434;6.788;2023-12-22T13:18:56;5.13;;;1.70;;
9102;SDS011;4587;51.434;6.788;2023-12-22T13:21:23;6.03;;;1.70;;
9102;SDS011;4587;51.434;6.788;2023-12-22T13:24:07;6.27;;;2.10;;
9102;SDS011;4587;51.434;6.788;2023-12-22T13:26:34;5.67;;;2.03;;
9102;SDS011;4587;51.434;6.788;2023-12-22T13:29:00;4.13;;;2.07;;
9102;SDS011;4587;51.434;6.788;2023-12-22T13:31:25;5.33;;;2.20;;
9102;SDS011;4587;51.434;6.788;2023-12-22T13:33:51;5.27;;;2.00;;
9102;SDS011;4587;51.434;6.788;2023-12-22T13:36:17;7.20;;;2.00;;
9102;SDS011;4587;51.434;6.788;2023-12-22T13:38:49;6.77;;;2.03;;
9102;SDS011;4587;51.434;6.788;2023-12-22T13:41:15;5.40;;;1.80;;
9102;SDS011;4587;51.434;6.788;2023-12-22T13:43:41;4.67;;;1.93;;
9102;SDS011;4587;51.434;6.788;2023-12-22T13:46:09;7.47;;;1.70;;
9102;SDS011;4587;51.434;6.788;2023-12-22T13:48:35;5.93;;;2.00;;
9102;SDS011;4587;51.434;6.788;2023-12-22T13:51:01;5.27;;;2.20;;
9102;SDS011;4587;51.434;6.788;2023-12-22T13:53:28;5.97;;;2.40;;
9102;SDS011;4587;51.434;6.788;2023-12-22T13:55:58;7.50;;;2.20;;
9102;SDS011;4587;51.434;6.788;2023-12-22T13:58:24;6.00;;;2.93;;
9102;SDS011;4587;51.434;6.788;2023-12-22T14:00:50;7.87;;;2.90;;
9102;SDS011;4587;51.434;6.788;2023-12-22T14:03:17;7.50;;;3.47;;
9102;SDS011;4587;51.434;6.788;2023-12-22T14:05:46;7.17;;;3.03;;
9102;SDS011;4587;51.434;6.788;2023-12-22T14:08:15;7.67;;;2.63;;
9102;SDS011;4587;51.434;6.788;2023-12-22T14:10:59;4.27;;;2.87;;
9102;SDS011;4587;51.434;6.788;2023-12-22T14:13:25;5.63;;;2.70;;
9102;SDS011;4587;51.434;6.788;2023-12-22T14:15:52;8.37;;;2.70;;
9102;SDS011;4587;51.434;6.788;2023-12-22T14:18:18;7.07;;;2.53;;
9102;SDS011;4587;51.434;6.788;2023-12-22T14:20:43;7.13;;;2.73;;
9102;SDS011;4587;51.434;6.788;2023-12-22T14:23:10;5.73;;;2.03;;
9102;SDS011;4587;51.434;6.788;2023-12-22T14:25:41;5.90;;;2.50;;
9102;SDS011;4587;51.434;6.788;2023-12-22T14:28:10;5.87;;;1.90;;
9102;SDS011;4587;51.434;6.788;2023-12-22T14:30:36;4.57;;;1.50;;
9102;SDS011;4587;51.434;6.788;2023-12-22T14:33:02;5.70;;;1.97;;
9102;SDS011;4587;51.434;6.788;2023-12-22T14:35:27;8.53;;;1.73;;
9102;SDS011;4587;51.434;6.788;2023-12-22T14:37:53;5.57;;;2.20;;
9102;SDS011;4587;51.434;6.788;2023-12-22T14:40:18;7.67;;;2.20;;
9102;SDS011;4587;51.434;6.788;2023-12-22T14:42:44;5.30;;;2.00;;
9102;SDS011;4587;51.434;6.788;2023-12-22T14:45:10;5.13;;;2.10;;
9102;SDS011;4587;51.434;6.788;2023-12-22T14:47:35;7.10;;;2.57;;
9102;SDS011;4587;51.434;6.788;2023-12-22T14:50:01;6.50;;;2.43;;
9102;SDS011;4587;51.434;6.788;2023-12-22T14:52:32;8.40;;;2.37;;
9102;SDS011;4587;51.434;6.788;2023-12-22T14:54:58;5.33;;;2.30;;
9102;SDS011;4587;51.434;6.788;2023-12-22T14:57:24;8.97;;;2.40;;
9102;SDS011;4587;51.434;6.788;2023-12-22T14:59:50;7.53;;;2.10;;
9102;SDS011;4587;51.434;6.788;2023-12-22T15:02:15;8.97;;;1.87;;
9102;SDS011;4587;51.434;6.788;2023-12-22T15:04:41;6.77;;;2.00;;
9102;SDS011;4587;51.434;6.788;2023-12-22T15:07:07;6.03;;;1.80;;
9102;SDS011;4587;51.434;6.788;2023-12-22T15:09:32;4.30;;;1.57;;
9102;SDS011;4587;51.434;6.788;2023-12-22T15:11:59;7.53;;;1.80;;
9102;SDS011;4587;51.434;6.788;2023-12-22T15:14:25;5.10;;;1.60;;
9102;SDS011;4587;51.434;6.788;2023-12-22T15:16:51;4.90;;;1.30;;